EFKK/KOK METAR and TAF weather

Enter ICAO airport designator
Station Type Date Time Source
EFKK METAR 2022/01/26 07:50 UTC NOAA

EFKK 260750Z AUTO 15007KT 9999 BKN004 OVC049 M05/M05 Q1004


Station Type Date Time Source
EFKK Decoded METAR 2022/01/26 07:50 UTC NOAA

Kruunupyy, Finland (EFKK) 63-43N 023-09E
Jan 26, 2022 - 02:50 AM EST / 2022.01.26 0750 UTC
Wind: from the SSE (150 degrees) at 8 MPH (7 KT):0
Visibility: greater than 7 mile(s):0
Sky conditions: overcast
Temperature: 23 F (-5 C)
Windchill: 14 F (-10 C):1
Dew Point: 23 F (-5 C)
Relative Humidity: 100%
Pressure (altimeter): 29.65 in. Hg (1004 hPa)
ob: EFKK 260750Z AUTO 15007KT 9999 BKN004 OVC049 M05/M05 Q1004
cycle: 8

Station Type Date Time Source
EFKK TAF 2019/04/22 21:42 UTC NOAA

TAF EFKK 222023Z 2221/2321 18006KT CAVOK

Example: see airport list